Time;durP1;ratioP1;P1;durP2;ratioP2;P2;SDS_P1;SDS_P2;PMS_P1;PMS_P2;Temp;Humidity;BMP_temperature;BMP_pressure;BME280_temperature;BME280_humidity;BME280_pressure;Samples;Min_cycle;Max_cycle;Signal;HPM_P1;HPM_P2
2022/10/03 00:02:35;;;;;;;26.13;12.38;;;9.90;99.90;;;;;;9861464;30;20197;-78
2022/10/03 00:07:53;;;;;;;38.05;15.15;;;9.90;99.90;;;;;;9862102;30;20413;-78
2022/10/03 00:13:11;;;;;;;33.97;15.53;;;9.90;99.90;;;;;;9861721;30;20039;-81
2022/10/03 00:18:27;;;;;;;33.90;16.23;;;10.00;99.90;;;;;;9861601;30;20477;-78
2022/10/03 00:23:59;;;;;;;34.85;15.55;;;9.90;99.90;;;;;;9861965;30;20046;-80
2022/10/03 00:29:22;;;;;;;29.52;12.25;;;9.90;99.90;;;;;;9822597;30;20146;-78
2022/10/03 00:34:41;;;;;;;36.60;14.87;;;9.90;99.90;;;;;;9860839;30;20043;-80
2022/10/03 00:40:02;;;;;;;35.33;15.00;;;9.90;99.90;;;;;;9857596;30;20035;-79
2022/10/03 00:45:46;;;;;;;33.77;15.67;;;9.90;99.90;;;;;;9831975;30;20059;-77
2022/10/03 00:51:06;;;;;;;33.28;15.18;;;9.90;99.90;;;;;;9851107;30;20031;-77
2022/10/03 00:56:56;;;;;;;32.88;15.93;;;9.90;99.90;;;;;;9844765;30;20043;-78
2022/10/03 01:01:56;;;;;;;29.27;13.88;;;9.90;99.90;;;;;;9809977;30;20055;-79
2022/10/03 01:07:36;;;;;;;38.00;16.37;;;9.90;99.90;;;;;;9860179;30;20035;-79
2022/10/03 01:12:37;;;;;;;44.38;15.68;;;9.90;99.90;;;;;;9856670;30;20481;-78
2022/10/03 01:17:48;;;;;;;28.10;13.23;;;9.90;99.90;;;;;;9848718;30;20036;-78
2022/10/03 01:22:57;;;;;;;27.17;13.20;;;9.90;99.90;;;;;;9859225;30;20379;-82
2022/10/03 01:33:40;;;;;;;30.03;13.43;;;9.90;99.90;;;;;;9857411;30;20059;-78
2022/10/03 01:38:57;;;;;;;32.83;15.47;;;9.90;99.90;;;;;;9849069;30;20420;-78
2022/10/03 01:44:11;;;;;;;;;;;9.90;99.90;;;;;;9854181;30;20774;-81
2022/10/03 01:49:35;;;;;;;44.07;16.90;;;9.90;99.90;;;;;;9843526;30;19924;-81
2022/10/03 01:54:41;;;;;;;26.25;12.32;;;9.90;99.90;;;;;;9860468;30;20393;-78
2022/10/03 01:59:46;;;;;;;29.05;13.40;;;9.90;99.90;;;;;;9859157;30;20040;-79
2022/10/03 02:05:04;;;;;;;29.25;13.25;;;9.90;99.90;;;;;;9860087;30;20181;-78
2022/10/03 02:10:18;;;;;;;33.27;13.77;;;9.90;99.90;;;;;;9859198;30;20047;-78
2022/10/03 02:15:27;;;;;;;30.10;13.57;;;9.90;99.90;;;;;;9851750;30;20043;-78
2022/10/03 02:20:47;;;;;;;26.70;12.35;;;10.00;99.90;;;;;;9852671;30;20078;-78
2022/10/03 02:26:07;;;;;;;33.72;15.25;;;10.00;99.90;;;;;;9859699;30;20040;-78
2022/10/03 02:31:20;;;;;;;27.00;12.93;;;10.00;99.90;;;;;;9860508;30;20182;-80
2022/10/03 02:36:40;;;;;;;29.27;13.57;;;10.10;99.90;;;;;;9865733;30;20062;-79
2022/10/03 02:42:26;;;;;;;31.33;11.60;;;10.00;99.90;;;;;;9861970;30;20044;-79
2022/10/03 02:47:46;;;;;;;32.37;11.80;;;10.00;99.90;;;;;;9827660;30;20055;-78
2022/10/03 02:53:16;;;;;;;27.88;13.07;;;10.00;99.90;;;;;;9848101;30;20027;-78
2022/10/03 02:58:38;;;;;;;28.73;12.70;;;10.00;99.90;;;;;;9809421;30;20051;-78
2022/10/03 03:04:06;;;;;;;28.83;10.75;;;10.00;99.90;;;;;;9856994;30;20123;-78
2022/10/03 03:09:43;;;;;;;25.10;9.32;;;10.00;99.90;;;;;;9857738;30;20107;-78
2022/10/03 03:15:19;;;;;;;22.33;9.90;;;10.00;99.90;;;;;;9848673;30;20043;-78
2022/10/03 03:20:40;;;;;;;22.23;9.70;;;10.00;99.90;;;;;;9864817;30;20044;-78
2022/10/03 03:26:05;;;;;;;26.67;9.47;;;10.00;99.90;;;;;;9863471;30;20526;-81
2022/10/03 03:31:15;;;;;;;27.48;9.15;;;10.00;99.90;;;;;;9862923;30;20127;-79
2022/10/03 03:36:21;;;;;;;18.77;8.20;;;9.90;99.90;;;;;;9863082;30;20463;-78
2022/10/03 03:41:45;;;;;;;21.60;7.70;;;9.90;99.90;;;;;;9845613;30;20071;-81
2022/10/03 03:47:00;;;;;;;27.58;9.73;;;10.00;99.90;;;;;;9859534;30;20043;-82
2022/10/03 03:52:08;;;;;;;24.05;9.68;;;10.00;99.90;;;;;;9862359;30;20695;-81
2022/10/03 03:57:31;;;;;;;25.42;9.82;;;10.00;99.90;;;;;;9857811;30;20032;-82
2022/10/03 04:03:00;;;;;;;23.77;10.17;;;10.00;99.90;;;;;;9851242;30;20175;-79
2022/10/03 04:08:35;;;;;;;22.17;8.88;;;10.00;99.90;;;;;;9855240;30;20055;-78
2022/10/03 04:14:16;;;;;;;28.25;10.50;;;10.00;99.90;;;;;;9854930;30;20679;-79
2022/10/03 04:19:35;;;;;;;23.23;9.27;;;9.90;99.90;;;;;;9773091;30;20052;-79
2022/10/03 04:24:57;;;;;;;19.10;7.55;;;9.90;99.90;;;;;;9860070;30;20752;-79
2022/10/03 04:30:08;;;;;;;19.48;8.00;;;9.80;99.90;;;;;;9856704;30;20452;-79
2022/10/03 04:35:47;;;;;;;23.20;8.95;;;9.80;99.90;;;;;;9862364;30;20597;-79
2022/10/03 04:41:10;;;;;;;24.23;11.47;;;9.80;99.90;;;;;;9840218;30;20044;-79
2022/10/03 04:46:38;;;;;;;28.33;10.70;;;9.80;99.90;;;;;;9846456;30;20122;-78
2022/10/03 04:51:52;;;;;;;22.30;9.73;;;9.80;99.90;;;;;;9856580;30;20118;-78
2022/10/03 04:57:14;;;;;;;34.00;10.87;;;9.70;99.90;;;;;;9858890;30;20042;-78
2022/10/03 05:02:42;;;;;;;23.60;8.70;;;9.70;99.90;;;;;;9861171;30;20063;-81
2022/10/03 05:08:04;;;;;;;21.60;9.73;;;9.60;99.90;;;;;;9844935;30;20370;-78
2022/10/03 05:13:15;;;;;;;21.83;9.50;;;9.60;99.90;;;;;;9861761;30;20126;-79
2022/10/03 05:18:36;;;;;;;19.23;7.97;;;9.60;99.90;;;;;;9861053;30;20039;-81
2022/10/03 05:24:02;;;;;;;21.33;9.53;;;9.60;99.90;;;;;;9861137;30;20052;-78
2022/10/03 05:29:02;;;;;;;23.88;9.90;;;9.60;99.90;;;;;;9861524;30;20050;-77
2022/10/03 05:34:35;;;;;;;21.27;8.77;;;9.60;99.90;;;;;;9861245;30;20051;-78
2022/10/03 05:39:52;;;;;;;20.30;8.57;;;9.60;99.90;;;;;;9860999;30;20435;-79
2022/10/03 05:45:20;;;;;;;20.83;8.73;;;9.60;99.90;;;;;;9861085;30;20051;-79
2022/10/03 05:50:37;;;;;;;28.00;9.77;;;9.70;99.90;;;;;;9844953;30;20035;-81
2022/10/03 05:55:51;;;;;;;20.63;8.60;;;9.70;99.90;;;;;;9861545;30;20494;-79
2022/10/03 06:01:00;;;;;;;26.30;9.02;;;9.70;99.90;;;;;;9867660;30;20036;-78
2022/10/03 06:06:41;;;;;;;24.30;9.30;;;9.70;99.90;;;;;;9866960;30;20055;-79
2022/10/03 06:12:02;;;;;;;25.27;9.15;;;9.80;99.90;;;;;;9857187;30;20028;-79
2022/10/03 06:17:12;;;;;;;19.98;10.07;;;9.90;99.90;;;;;;9867426;30;20032;-79
2022/10/03 06:22:43;;;;;;;20.23;9.27;;;9.80;99.90;;;;;;9867073;30;20028;-78
2022/10/03 06:28:09;;;;;;;25.10;10.70;;;9.90;99.90;;;;;;9867122;30;20039;-78
2022/10/03 06:33:27;;;;;;;18.88;8.15;;;9.90;99.90;;;;;;9866209;30;20036;-83
2022/10/03 06:38:52;;;;;;;17.85;7.57;;;9.90;99.90;;;;;;9866246;30;20044;-78
2022/10/03 06:43:58;;;;;;;24.77;7.63;;;9.90;99.90;;;;;;9865825;30;20048;-80
2022/10/03 06:49:16;;;;;;;17.60;6.53;;;9.90;99.90;;;;;;9865906;30;20771;-79
2022/10/03 06:54:45;;;;;;;15.43;6.53;;;9.80;99.90;;;;;;9865510;30;20051;-81
2022/10/03 07:00:09;;;;;;;12.97;5.53;;;9.80;99.90;;;;;;9865537;30;20060;-81
2022/10/03 07:05:22;;;;;;;13.55;5.95;;;9.80;99.90;;;;;;9858155;30;20059;-80
2022/10/03 07:10:49;;;;;;;17.90;7.05;;;9.90;99.90;;;;;;9847772;30;20043;-79
2022/10/03 07:16:07;;;;;;;20.80;7.70;;;9.90;99.90;;;;;;9845985;30;20040;-79
2022/10/03 07:21:42;;;;;;;16.52;6.55;;;9.90;99.90;;;;;;9864704;30;20035;-80
2022/10/03 07:27:00;;;;;;;16.88;6.93;;;9.90;99.90;;;;;;9864593;30;20028;-78
2022/10/03 07:32:09;;;;;;;18.60;8.02;;;9.80;99.90;;;;;;9864405;30;20051;-79
2022/10/03 07:43:22;;;;;;;20.83;6.43;;;9.80;99.90;;;;;;9864022;30;20099;-82
2022/10/03 07:49:00;;;;;;;19.77;7.63;;;9.90;99.90;;;;;;9864136;30;20065;-81
2022/10/03 07:54:07;;;;;;;26.33;9.07;;;10.00;99.90;;;;;;9864463;30;20454;-79
2022/10/03 07:59:22;;;;;;;19.67;6.72;;;10.10;99.90;;;;;;9864172;30;20040;-81
2022/10/03 08:04:56;;;;;;;13.55;5.65;;;10.10;99.90;;;;;;9863214;30;20134;-81
2022/10/03 08:10:18;;;;;;;15.93;6.38;;;10.10;99.90;;;;;;9863039;30;20032;-78
2022/10/03 08:15:43;;;;;;;12.88;6.13;;;10.00;99.90;;;;;;9862720;30;20408;-79
2022/10/03 08:21:35;;;;;;;14.03;5.70;;;10.10;99.90;;;;;;9862628;30;20161;-80
2022/10/03 08:26:44;;;;;;;22.40;8.48;;;10.20;99.90;;;;;;9823839;30;20055;-80
2022/10/03 08:32:04;;;;;;;13.40;6.53;;;10.50;99.90;;;;;;9862800;30;20036;-81
2022/10/03 08:37:29;;;;;;;12.15;5.78;;;10.70;99.90;;;;;;9862760;30;20086;-82
2022/10/03 08:43:04;;;;;;;13.80;5.70;;;10.60;99.90;;;;;;9845693;30;20078;-79
2022/10/03 08:48:31;;;;;;;19.73;7.45;;;10.40;99.90;;;;;;9862479;30;20484;-81
2022/10/03 08:54:13;;;;;;;12.55;5.20;;;10.30;99.90;;;;;;9853142;30;20051;-80
2022/10/03 08:59:29;;;;;;;22.08;8.95;;;10.30;99.90;;;;;;9861649;30;20453;-81
2022/10/03 09:05:01;;;;;;;16.63;6.40;;;10.30;99.90;;;;;;9862318;30;20117;-81
2022/10/03 09:10:21;;;;;;;17.85;6.03;;;10.40;99.90;;;;;;9861717;30;20069;-80
2022/10/03 09:15:34;;;;;;;14.95;6.38;;;10.50;99.90;;;;;;9861450;30;20032;-80
2022/10/03 09:21:16;;;;;;;15.88;7.82;;;10.60;99.90;;;;;;9845443;30;20493;-81
2022/10/03 09:26:27;;;;;;;14.50;6.35;;;10.80;99.90;;;;;;9836596;30;20063;-81
2022/10/03 09:31:54;;;;;;;11.48;5.25;;;11.20;99.90;;;;;;9864021;30;20043;-79
2022/10/03 09:37:30;;;;;;;13.40;5.32;;;11.50;99.90;;;;;;9868607;30;20213;-79
2022/10/03 09:42:33;;;;;;;9.20;3.92;;;11.90;99.90;;;;;;9868310;30;20549;-79
2022/10/03 09:47:49;;;;;;;9.35;4.03;;;11.70;99.90;;;;;;9868683;30;20061;-80
2022/10/03 09:53:30;;;;;;;8.13;2.70;;;11.50;99.90;;;;;;9868254;30;20039;-80
2022/10/03 09:58:38;;;;;;;9.13;4.15;;;11.40;99.90;;;;;;9868332;30;20540;-79
2022/10/03 10:03:39;;;;;;;10.23;3.42;;;11.50;99.90;;;;;;9868121;30;20459;-80
2022/10/03 10:09:18;;;;;;;5.90;2.85;;;11.50;99.90;;;;;;9867664;30;20044;-81
2022/10/03 10:14:43;;;;;;;6.55;3.97;;;11.30;99.90;;;;;;9837277;30;20048;-80
2022/10/03 10:20:03;;;;;;;4.45;3.00;;;11.10;99.90;;;;;;9867672;30;20540;-80
2022/10/03 10:25:42;;;;;;;5.60;3.38;;;11.10;99.90;;;;;;9851319;30;20469;-78
2022/10/03 10:31:04;;;;;;;4.30;2.40;;;11.00;99.90;;;;;;9854713;30;20050;-79
2022/10/03 10:36:42;;;;;;;8.27;2.95;;;10.90;99.90;;;;;;9866679;30;20043;-81
2022/10/03 10:42:17;;;;;;;4.20;2.97;;;10.80;99.90;;;;;;9845284;30;20086;-79
2022/10/03 10:47:42;;;;;;;8.00;3.03;;;10.80;99.90;;;;;;9854324;30;20669;-79
2022/10/03 10:53:08;;;;;;;7.40;3.00;;;10.80;99.90;;;;;;9866450;30;20034;-79
2022/10/03 10:58:30;;;;;;;9.10;4.23;;;10.70;99.90;;;;;;9850574;30;20036;-80
2022/10/03 11:03:53;;;;;;;7.35;3.40;;;10.60;99.90;;;;;;9866097;30;20063;-79
2022/10/03 11:09:21;;;;;;;5.80;2.72;;;10.50;99.90;;;;;;9865480;30;20399;-80
2022/10/03 11:14:43;;;;;;;4.07;2.03;;;10.40;99.90;;;;;;9865763;30;20079;-79
2022/10/03 11:20:13;;;;;;;8.48;2.88;;;10.30;99.90;;;;;;9866004;30;20042;-79
2022/10/03 11:25:34;;;;;;;4.20;2.25;;;10.40;99.90;;;;;;9842770;30;20047;-79
2022/10/03 11:30:56;;;;;;;3.85;1.88;;;10.50;99.90;;;;;;9864803;30;20048;-80
2022/10/03 11:36:24;;;;;;;5.30;3.15;;;10.50;99.90;;;;;;9848307;30;20127;-81
2022/10/03 11:41:52;;;;;;;4.50;2.30;;;10.70;99.90;;;;;;9865043;30;20054;-81
2022/10/03 11:47:12;;;;;;;6.43;2.53;;;10.90;99.90;;;;;;9864445;30;20036;-80
2022/10/03 11:52:47;;;;;;;6.07;2.95;;;11.10;99.90;;;;;;9864147;30;20043;-79
2022/10/03 11:58:14;;;;;;;11.52;3.85;;;11.10;99.90;;;;;;9847346;30;20138;-80
2022/10/03 12:03:25;;;;;;;7.38;3.03;;;11.10;99.90;;;;;;9835094;30;20063;-80
2022/10/03 12:14:07;;;;;;;6.07;3.40;;;11.10;99.90;;;;;;9863611;30;20036;-79
2022/10/03 12:19:29;;;;;;;3.15;2.25;;;11.00;99.90;;;;;;9863912;30;20167;-79
2022/10/03 12:24:35;;;;;;;4.32;2.60;;;11.00;99.90;;;;;;9846648;30;20536;-80
2022/10/03 12:29:44;;;;;;;5.40;2.63;;;10.90;99.90;;;;;;9862863;30;20044;-80
2022/10/03 12:35:19;;;;;;;5.80;2.83;;;10.80;99.90;;;;;;9862647;30;20040;-81
2022/10/03 12:40:30;;;;;;;7.57;2.80;;;10.70;99.90;;;;;;9813480;30;20126;-79
2022/10/03 12:45:53;;;;;;;6.28;3.00;;;10.60;99.90;;;;;;9862180;30;20066;-80
2022/10/03 12:51:25;;;;;;;5.68;3.15;;;10.70;99.90;;;;;;9862455;30;20032;-79
2022/10/03 12:56:59;;;;;;;6.68;3.33;;;10.90;99.90;;;;;;9861808;30;20040;-80
2022/10/03 13:02:19;;;;;;;5.63;3.20;;;11.10;99.90;;;;;;9861383;30;20042;-79
2022/10/03 13:07:28;;;;;;;4.47;2.90;;;11.30;99.90;;;;;;9862295;30;20040;-79
2022/10/03 13:12:35;;;;;;;5.65;3.45;;;11.40;99.90;;;;;;9851566;30;20143;-78
2022/10/03 13:17:51;;;;;;;10.30;3.40;;;11.50;99.90;;;;;;9860709;30;20084;-81
2022/10/03 13:22:58;;;;;;;;;;;11.50;99.90;;;;;;9851406;30;20048;-79
2022/10/03 13:28:14;;;;;;;13.75;6.22;;;11.40;99.90;;;;;;9852077;30;19953;-79
2022/10/03 13:33:25;;;;;;;30.77;12.40;;;11.30;99.90;;;;;;9845348;30;20408;-80
2022/10/03 13:38:35;;;;;;;13.25;5.13;;;11.30;99.90;;;;;;9861072;30;20043;-84
2022/10/03 13:43:38;;;;;;;32.22;22.70;;;11.00;99.90;;;;;;9860619;30;20043;-80
2022/10/03 13:48:42;;;;;;;26.95;10.25;;;10.80;99.90;;;;;;9856605;30;20067;-79
2022/10/03 13:53:58;;;;;;;11.75;6.32;;;10.70;99.90;;;;;;9861204;30;20070;-81
2022/10/03 13:59:30;;;;;;;41.40;21.58;;;10.60;99.90;;;;;;9831885;30;20060;-81
2022/10/03 14:04:38;;;;;;;8.25;4.35;;;10.60;99.90;;;;;;9853343;30;20480;-81
2022/10/03 14:10:06;;;;;;;13.40;5.45;;;10.50;99.90;;;;;;9845103;30;20054;-82
2022/10/03 14:15:30;;;;;;;6.95;4.07;;;10.50;99.90;;;;;;9845781;30;20028;-79
2022/10/03 14:20:55;;;;;;;15.25;5.60;;;10.60;99.90;;;;;;9867992;30;20050;-81
2022/10/03 14:26:20;;;;;;;7.65;3.75;;;10.80;99.90;;;;;;9851676;30;20423;-81
2022/10/03 14:31:49;;;;;;;6.10;3.47;;;10.80;99.90;;;;;;9868290;30;20036;-81
2022/10/03 14:36:57;;;;;;;9.80;4.18;;;10.70;99.90;;;;;;9842646;30;20051;-80
2022/10/03 14:42:46;;;;;;;9.52;4.35;;;10.60;99.90;;;;;;9837354;30;20192;-81
2022/10/03 14:48:04;;;;;;;8.20;3.97;;;10.60;99.90;;;;;;9862888;30;20477;-81
2022/10/03 14:53:15;;;;;;;12.18;4.43;;;10.50;99.90;;;;;;9851058;30;20020;-82
2022/10/03 14:58:27;;;;;;;11.27;5.07;;;10.50;99.90;;;;;;9867423;30;20031;-80
2022/10/03 15:03:37;;;;;;;8.05;5.07;;;10.50;99.90;;;;;;9866179;30;20059;-80
2022/10/03 15:08:42;;;;;;;17.90;5.10;;;10.60;99.90;;;;;;9866181;30;20571;-80
2022/10/03 15:13:53;;;;;;;9.80;4.50;;;10.70;99.90;;;;;;9849840;30;20389;-80
2022/10/03 15:19:02;;;;;;;9.68;4.53;;;10.70;99.90;;;;;;9865043;30;20107;-80
2022/10/03 15:24:11;;;;;;;24.92;10.80;;;10.70;99.90;;;;;;9845230;30;20511;-80
2022/10/03 15:29:16;;;;;;;9.50;5.07;;;10.70;99.90;;;;;;9863094;30;20042;-80
2022/10/03 15:34:32;;;;;;;6.47;2.88;;;10.70;99.90;;;;;;9845872;30;20048;-80
2022/10/03 15:39:39;;;;;;;14.60;4.43;;;10.60;99.90;;;;;;9864885;30;20481;-80
2022/10/03 15:44:53;;;;;;;9.50;4.53;;;10.60;99.90;;;;;;9852376;30;20650;-80
2022/10/03 15:50:03;;;;;;;9.18;4.88;;;10.50;99.90;;;;;;9857531;30;20024;-81
2022/10/03 15:55:05;;;;;;;10.98;4.13;;;10.40;99.90;;;;;;9857976;30;20055;-81
2022/10/03 16:00:07;;;;;;;10.63;4.20;;;10.40;99.90;;;;;;9855996;30;20101;-81
2022/10/03 16:05:18;;;;;;;7.70;3.97;;;10.40;99.90;;;;;;9853887;30;20064;-81
2022/10/03 16:10:25;;;;;;;15.00;6.00;;;10.40;99.90;;;;;;9865965;30;20485;-79
2022/10/03 16:15:56;;;;;;;10.15;5.18;;;10.50;99.90;;;;;;9858929;30;20032;-80
2022/10/03 16:21:00;;;;;;;9.15;4.55;;;10.40;99.90;;;;;;9858737;30;20039;-80
2022/10/03 16:26:05;;;;;;;24.13;9.88;;;10.40;99.90;;;;;;9860508;30;20047;-81
2022/10/03 16:31:17;;;;;;;13.30;5.05;;;10.30;99.90;;;;;;9860257;30;20484;-79
2022/10/03 16:36:20;;;;;;;10.07;4.80;;;10.30;99.90;;;;;;9859157;30;20474;-80
2022/10/03 16:41:25;;;;;;;9.10;5.50;;;10.30;99.90;;;;;;9844508;30;20401;-81
2022/10/03 16:46:30;;;;;;;10.45;5.18;;;10.30;99.90;;;;;;9862703;30;20036;-81
2022/10/03 16:51:54;;;;;;;15.35;6.85;;;10.30;99.90;;;;;;9858374;30;20028;-79
2022/10/03 16:56:59;;;;;;;13.93;5.95;;;10.30;99.90;;;;;;9863234;30;20451;-80
2022/10/03 17:02:05;;;;;;;14.20;6.87;;;10.20;99.90;;;;;;9844390;30;20396;-81
2022/10/03 17:07:22;;;;;;;11.02;5.13;;;10.20;99.90;;;;;;9856032;30;20297;-80
2022/10/03 17:12:31;;;;;;;18.20;8.02;;;10.10;99.90;;;;;;9845958;30;20126;-80
2022/10/03 17:17:58;;;;;;;18.33;6.18;;;10.10;99.90;;;;;;9842266;30;20040;-79
2022/10/03 17:23:03;;;;;;;15.30;6.33;;;10.10;99.90;;;;;;9854055;30;20127;-81
2022/10/03 17:28:09;;;;;;;12.60;6.03;;;10.20;99.90;;;;;;9871371;30;20386;-79
2022/10/03 17:33:21;;;;;;;12.25;6.20;;;10.20;99.90;;;;;;9857765;30;20961;-81
2022/10/03 17:38:52;;;;;;;10.65;6.10;;;10.20;99.90;;;;;;9853607;30;20027;-79
2022/10/03 17:44:08;;;;;;;13.40;6.95;;;10.40;99.90;;;;;;9842522;30;20692;-78
2022/10/03 17:49:11;;;;;;;;;;;10.40;99.90;;;;;;9854585;30;20052;-82
2022/10/03 17:54:25;;;;;;;14.02;6.90;;;10.40;99.90;;;;;;9849804;30;19918;-81
2022/10/03 17:59:40;;;;;;;12.40;5.38;;;10.40;99.90;;;;;;9856966;30;20478;-81
2022/10/03 18:04:43;;;;;;;10.38;5.55;;;10.40;99.90;;;;;;9860271;30;20088;-81
2022/10/03 18:09:49;;;;;;;10.15;5.60;;;10.40;99.90;;;;;;9861960;30;20031;-80
2022/10/03 18:15:12;;;;;;;10.05;5.55;;;10.40;99.90;;;;;;9862439;30;20093;-80
2022/10/03 18:20:47;;;;;;;13.63;5.40;;;10.50;99.90;;;;;;9856570;30;20110;-82
2022/10/03 18:26:03;;;;;;;9.85;5.30;;;10.50;99.90;;;;;;9864244;30;20031;-81
2022/10/03 18:31:09;;;;;;;9.38;4.88;;;10.50;99.90;;;;;;9866157;30;20032;-80
2022/10/03 18:36:20;;;;;;;10.98;5.30;;;10.40;99.90;;;;;;9856920;30;20529;-81
2022/10/03 18:41:21;;;;;;;14.25;6.15;;;10.50;99.90;;;;;;9866165;30;20075;-80
2022/10/03 18:46:28;;;;;;;10.88;4.88;;;10.40;99.90;;;;;;9861396;30;20799;-84
2022/10/03 18:51:42;;;;;;;17.40;6.43;;;10.40;99.90;;;;;;9862439;30;20495;-79
2022/10/03 18:56:45;;;;;;;11.43;4.82;;;10.40;99.90;;;;;;9853290;30;20533;-80
2022/10/03 19:01:55;;;;;;;9.88;4.63;;;10.40;99.90;;;;;;9851121;30;20547;-81
2022/10/03 19:06:57;;;;;;;14.50;5.40;;;10.40;99.90;;;;;;9834803;30;20386;-83
2022/10/03 19:12:09;;;;;;;13.88;5.15;;;10.40;99.90;;;;;;9861439;30;20519;-83
2022/10/03 19:17:25;;;;;;;10.65;4.57;;;10.30;99.90;;;;;;9852014;30;20173;-80
2022/10/03 19:22:38;;;;;;;13.02;5.25;;;10.30;99.90;;;;;;9862212;30;20416;-82
2022/10/03 19:27:46;;;;;;;10.25;5.03;;;10.30;99.90;;;;;;9841508;30;20075;-82
2022/10/03 19:32:58;;;;;;;9.35;5.32;;;10.30;99.90;;;;;;9861253;30;20089;-83
2022/10/03 19:38:23;;;;;;;16.27;7.13;;;10.10;99.90;;;;;;9863002;30;20663;-82
2022/10/03 19:43:43;;;;;;;13.32;6.25;;;10.00;99.90;;;;;;9864727;30;20044;-82
2022/10/03 19:48:48;;;;;;;17.10;7.63;;;10.00;99.90;;;;;;9864458;30;20070;-82
2022/10/03 19:53:50;;;;;;;19.02;7.30;;;9.90;99.90;;;;;;9863364;30;20040;-80
2022/10/03 19:59:04;;;;;;;15.27;6.88;;;9.90;99.90;;;;;;9863671;30;20036;-81
2022/10/03 20:04:05;;;;;;;21.17;6.97;;;9.90;99.90;;;;;;9857616;30;20082;-81
2022/10/03 20:09:23;;;;;;;17.50;7.40;;;9.90;99.90;;;;;;9862554;30;20038;-80
2022/10/03 20:14:32;;;;;;;17.63;7.18;;;9.90;99.90;;;;;;9862434;30;20706;-81
2022/10/03 20:19:39;;;;;;;22.77;7.88;;;9.90;99.90;;;;;;9856002;30;20163;-82
2022/10/03 20:24:44;;;;;;;22.43;9.40;;;9.90;99.90;;;;;;9861933;30;20055;-80
2022/10/03 20:30:05;;;;;;;20.53;9.17;;;9.90;99.90;;;;;;9842522;30;20689;-80
2022/10/03 20:35:11;;;;;;;22.80;8.87;;;9.90;99.90;;;;;;9833413;30;20084;-80
2022/10/03 20:40:29;;;;;;;23.77;9.57;;;9.90;99.90;;;;;;9854829;30;20036;-80
2022/10/03 20:45:32;;;;;;;27.40;9.75;;;10.00;99.90;;;;;;9860269;30;20724;-80
2022/10/03 20:50:56;;;;;;;22.52;9.15;;;10.00;99.90;;;;;;9861971;30;20405;-81
2022/10/03 20:55:56;;;;;;;22.75;9.18;;;10.00;99.90;;;;;;9861700;30;20105;-80
2022/10/03 21:01:05;;;;;;;20.90;8.60;;;10.00;99.90;;;;;;9834689;30;20089;-80
2022/10/03 21:06:25;;;;;;;26.15;10.13;;;10.00;99.90;;;;;;9861046;30;20117;-83
2022/10/03 21:11:29;;;;;;;25.25;9.63;;;10.00;99.90;;;;;;9862476;30;20130;-81
2022/10/03 21:16:35;;;;;;;23.93;9.37;;;10.00;99.90;;;;;;9860967;30;20081;-79
2022/10/03 21:21:39;;;;;;;20.63;8.65;;;10.00;99.90;;;;;;9846148;30;20039;-80
2022/10/03 21:26:51;;;;;;;24.45;9.85;;;10.00;99.90;;;;;;9860498;30;20105;-80
2022/10/03 21:32:10;;;;;;;20.08;9.18;;;10.10;99.90;;;;;;9874747;30;20038;-80
2022/10/03 21:37:24;;;;;;;19.75;8.13;;;10.10;99.90;;;;;;9867029;30;20052;-81
2022/10/03 21:42:55;;;;;;;24.75;9.57;;;10.00;99.90;;;;;;9852775;30;20048;-82
2022/10/03 21:47:56;;;;;;;19.77;6.80;;;10.10;99.90;;;;;;9852291;30;20040;-83
2022/10/03 21:53:08;;;;;;;22.48;7.70;;;10.00;99.90;;;;;;9868452;30;20031;-84
2022/10/03 21:58:39;;;;;;;21.23;8.52;;;10.00;99.90;;;;;;9868799;30;20040;-80
2022/10/03 22:04:10;;;;;;;18.58;6.55;;;10.00;99.90;;;;;;9857728;30;20068;-82
2022/10/03 22:09:13;;;;;;;29.85;8.63;;;10.00;99.90;;;;;;9868778;30;20047;-81
2022/10/03 22:14:47;;;;;;;23.25;9.65;;;10.00;99.90;;;;;;9867696;30;20633;-83
2022/10/03 22:19:56;;;;;;;24.60;9.27;;;10.00;99.90;;;;;;9867786;30;20042;-81
2022/10/03 22:24:59;;;;;;;21.70;8.77;;;10.00;99.90;;;;;;9851200;30;20444;-82
2022/10/03 22:30:03;;;;;;;19.90;8.87;;;10.00;99.90;;;;;;9853831;30;20763;-80
2022/10/03 22:35:06;;;;;;;26.85;9.02;;;10.00;99.90;;;;;;9854950;30;20489;-78
2022/10/03 22:40:07;;;;;;;19.02;8.10;;;10.10;99.90;;;;;;9863691;30;20500;-82
2022/10/03 22:45:10;;;;;;;24.95;9.13;;;10.00;99.90;;;;;;9865869;30;20054;-79
2022/10/03 22:50:13;;;;;;;21.40;7.50;;;10.10;99.90;;;;;;9861241;30;20410;-80
2022/10/03 22:55:17;;;;;;;19.75;7.95;;;10.10;99.90;;;;;;9865287;30;20385;-79
2022/10/03 23:00:24;;;;;;;20.40;9.02;;;10.10;99.90;;;;;;9849525;30;20035;-80
2022/10/03 23:05:33;;;;;;;31.90;10.75;;;10.10;99.90;;;;;;9866273;30;20052;-79
2022/10/03 23:10:53;;;;;;;18.88;8.68;;;10.10;99.90;;;;;;9861005;30;20058;-83
2022/10/03 23:16:06;;;;;;;19.38;8.50;;;10.10;99.90;;;;;;9866046;30;20118;-79
2022/10/03 23:21:11;;;;;;;24.08;8.02;;;10.10;99.90;;;;;;9848854;30;20047;-79
2022/10/03 23:27:05;;;;;;;20.03;7.93;;;10.10;99.90;;;;;;9862566;30;20052;-80
2022/10/03 23:32:08;;;;;;;19.83;7.95;;;10.10;99.90;;;;;;9781359;30;20062;-80
2022/10/03 23:37:14;;;;;;;20.13;7.93;;;10.10;99.90;;;;;;9864662;30;20512;-80
2022/10/03 23:42:23;;;;;;;17.98;7.93;;;10.10;99.90;;;;;;9862519;30;20055;-79
2022/10/03 23:47:31;;;;;;;20.08;7.28;;;10.10;99.90;;;;;;9855792;30;20035;-80
2022/10/03 23:52:48;;;;;;;23.67;7.68;;;10.00;99.90;;;;;;9846639;30;20035;-79
2022/10/03 23:57:49;;;;;;;23.98;8.82;;;10.00;99.90;;;;;;9864134;30;20096;-81
